sensor_id;sensor_type;location;lat;lon;timestamp;P1;durP1;ratioP1;P2;durP2;ratioP2
2934;SDS011;2462;51.456;7.248;2022-09-17T00:00:48;12.63;;;2.90;;
2934;SDS011;2462;51.456;7.248;2022-09-17T00:03:14;9.83;;;3.30;;
2934;SDS011;2462;51.456;7.248;2022-09-17T00:05:40;4.70;;;3.10;;
2934;SDS011;2462;51.456;7.248;2022-09-17T00:08:08;5.53;;;3.00;;
2934;SDS011;2462;51.456;7.248;2022-09-17T00:10:36;8.83;;;3.43;;
2934;SDS011;2462;51.456;7.248;2022-09-17T00:13:03;5.33;;;3.00;;
2934;SDS011;2462;51.456;7.248;2022-09-17T00:15:29;12.40;;;3.30;;
2934;SDS011;2462;51.456;7.248;2022-09-17T00:17:56;4.40;;;2.73;;
2934;SDS011;2462;51.456;7.248;2022-09-17T00:20:22;7.20;;;2.90;;
2934;SDS011;2462;51.456;7.248;2022-09-17T00:22:49;6.27;;;2.57;;
2934;SDS011;2462;51.456;7.248;2022-09-17T00:25:15;8.20;;;2.67;;
2934;SDS011;2462;51.456;7.248;2022-09-17T00:27:40;8.90;;;2.87;;
2934;SDS011;2462;51.456;7.248;2022-09-17T00:30:06;9.80;;;2.80;;
2934;SDS011;2462;51.456;7.248;2022-09-17T00:32:32;6.83;;;2.77;;
2934;SDS011;2462;51.456;7.248;2022-09-17T00:34:58;3.53;;;2.20;;
2934;SDS011;2462;51.456;7.248;2022-09-17T00:37:23;5.07;;;2.27;;
2934;SDS011;2462;51.456;7.248;2022-09-17T00:39:49;7.17;;;3.20;;
2934;SDS011;2462;51.456;7.248;2022-09-17T00:42:15;5.80;;;1.97;;
2934;SDS011;2462;51.456;7.248;2022-09-17T00:44:44;6.10;;;2.80;;
2934;SDS011;2462;51.456;7.248;2022-09-17T00:47:15;5.63;;;2.50;;
2934;SDS011;2462;51.456;7.248;2022-09-17T00:49:41;6.80;;;2.60;;
2934;SDS011;2462;51.456;7.248;2022-09-17T00:52:10;12.90;;;3.03;;
2934;SDS011;2462;51.456;7.248;2022-09-17T00:54:40;5.70;;;2.50;;
2934;SDS011;2462;51.456;7.248;2022-09-17T00:57:08;6.07;;;2.17;;
2934;SDS011;2462;51.456;7.248;2022-09-17T00:59:34;12.07;;;3.50;;
2934;SDS011;2462;51.456;7.248;2022-09-17T01:01:59;6.77;;;2.30;;
2934;SDS011;2462;51.456;7.248;2022-09-17T01:04:26;2.23;;;1.67;;
2934;SDS011;2462;51.456;7.248;2022-09-17T01:07:03;6.90;;;2.17;;
2934;SDS011;2462;51.456;7.248;2022-09-17T01:10:26;7.80;;;2.13;;
2934;SDS011;2462;51.456;7.248;2022-09-17T01:32:18;7.43;;;3.10;;
2934;SDS011;2462;51.456;7.248;2022-09-17T01:35:00;4.43;;;2.60;;
2934;SDS011;2462;51.456;7.248;2022-09-17T01:37:44;8.10;;;3.20;;
2934;SDS011;2462;51.456;7.248;2022-09-17T01:43:07;5.80;;;2.50;;
2934;SDS011;2462;51.456;7.248;2022-09-17T01:48:16;5.30;;;2.40;;
2934;SDS011;2462;51.456;7.248;2022-09-17T01:50:54;9.03;;;2.70;;
2934;SDS011;2462;51.456;7.248;2022-09-17T01:53:27;5.53;;;2.97;;
2934;SDS011;2462;51.456;7.248;2022-09-17T01:55:59;5.77;;;2.90;;
2934;SDS011;2462;51.456;7.248;2022-09-17T01:58:31;8.90;;;3.03;;
2934;SDS011;2462;51.456;7.248;2022-09-17T02:01:01;7.93;;;3.03;;
2934;SDS011;2462;51.456;7.248;2022-09-17T02:03:32;8.17;;;3.00;;
2934;SDS011;2462;51.456;7.248;2022-09-17T02:06:06;14.07;;;3.13;;
2934;SDS011;2462;51.456;7.248;2022-09-17T02:09:00;8.30;;;3.60;;
2934;SDS011;2462;51.456;7.248;2022-09-17T02:11:33;10.90;;;2.97;;
2934;SDS011;2462;51.456;7.248;2022-09-17T02:14:02;9.20;;;3.33;;
2934;SDS011;2462;51.456;7.248;2022-09-17T02:16:33;5.10;;;3.50;;
2934;SDS011;2462;51.456;7.248;2022-09-17T02:24:39;8.10;;;3.43;;
2934;SDS011;2462;51.456;7.248;2022-09-17T02:27:10;6.40;;;3.20;;
2934;SDS011;2462;51.456;7.248;2022-09-17T02:29:46;8.17;;;3.90;;
2934;SDS011;2462;51.456;7.248;2022-09-17T02:32:12;8.87;;;3.57;;
2934;SDS011;2462;51.456;7.248;2022-09-17T02:34:38;8.37;;;3.70;;
2934;SDS011;2462;51.456;7.248;2022-09-17T02:37:04;6.87;;;3.13;;
2934;SDS011;2462;51.456;7.248;2022-09-17T02:39:31;15.40;;;2.93;;
2934;SDS011;2462;51.456;7.248;2022-09-17T02:44:49;7.63;;;3.50;;
2934;SDS011;2462;51.456;7.248;2022-09-17T02:47:40;6.73;;;3.00;;
2934;SDS011;2462;51.456;7.248;2022-09-17T02:50:36;13.93;;;3.40;;
2934;SDS011;2462;51.456;7.248;2022-09-17T02:55:58;8.47;;;2.97;;
2934;SDS011;2462;51.456;7.248;2022-09-17T02:59:04;11.57;;;4.20;;
2934;SDS011;2462;51.456;7.248;2022-09-17T03:04:42;14.80;;;3.30;;
2934;SDS011;2462;51.456;7.248;2022-09-17T03:07:11;9.17;;;3.47;;
2934;SDS011;2462;51.456;7.248;2022-09-17T03:09:38;11.77;;;3.47;;
2934;SDS011;2462;51.456;7.248;2022-09-17T03:12:05;10.47;;;3.83;;
2934;SDS011;2462;51.456;7.248;2022-09-17T03:14:31;8.87;;;3.33;;
2934;SDS011;2462;51.456;7.248;2022-09-17T03:16:57;8.60;;;3.47;;
2934;SDS011;2462;51.456;7.248;2022-09-17T03:19:22;13.60;;;4.03;;
2934;SDS011;2462;51.456;7.248;2022-09-17T03:21:48;12.83;;;4.17;;
2934;SDS011;2462;51.456;7.248;2022-09-17T03:24:13;10.20;;;2.70;;
2934;SDS011;2462;51.456;7.248;2022-09-17T03:26:39;10.33;;;3.70;;
2934;SDS011;2462;51.456;7.248;2022-09-17T03:29:04;10.47;;;3.80;;
2934;SDS011;2462;51.456;7.248;2022-09-17T03:31:30;16.63;;;3.77;;
2934;SDS011;2462;51.456;7.248;2022-09-17T03:33:56;9.10;;;3.27;;
2934;SDS011;2462;51.456;7.248;2022-09-17T03:36:22;15.33;;;4.00;;
2934;SDS011;2462;51.456;7.248;2022-09-17T03:38:52;12.53;;;3.73;;
2934;SDS011;2462;51.456;7.248;2022-09-17T03:41:21;7.87;;;3.40;;
2934;SDS011;2462;51.456;7.248;2022-09-17T03:43:47;10.17;;;4.80;;
2934;SDS011;2462;51.456;7.248;2022-09-17T03:46:13;8.60;;;2.73;;
2934;SDS011;2462;51.456;7.248;2022-09-17T03:48:38;9.47;;;3.27;;
2934;SDS011;2462;51.456;7.248;2022-09-17T03:51:04;6.10;;;2.80;;
2934;SDS011;2462;51.456;7.248;2022-09-17T03:53:31;9.43;;;2.97;;
2934;SDS011;2462;51.456;7.248;2022-09-17T03:56:00;11.43;;;3.00;;
2934;SDS011;2462;51.456;7.248;2022-09-17T03:58:27;9.07;;;3.63;;
2934;SDS011;2462;51.456;7.248;2022-09-17T04:00:54;7.83;;;2.40;;
2934;SDS011;2462;51.456;7.248;2022-09-17T04:03:22;12.60;;;2.90;;
2934;SDS011;2462;51.456;7.248;2022-09-17T04:05:48;7.50;;;3.17;;
2934;SDS011;2462;51.456;7.248;2022-09-17T04:08:13;9.10;;;3.10;;
2934;SDS011;2462;51.456;7.248;2022-09-17T04:10:39;10.87;;;3.53;;
2934;SDS011;2462;51.456;7.248;2022-09-17T04:13:04;6.47;;;2.77;;
2934;SDS011;2462;51.456;7.248;2022-09-17T04:15:30;10.53;;;3.20;;
2934;SDS011;2462;51.456;7.248;2022-09-17T04:17:56;15.70;;;3.57;;
2934;SDS011;2462;51.456;7.248;2022-09-17T04:20:22;10.50;;;3.50;;
2934;SDS011;2462;51.456;7.248;2022-09-17T04:22:48;11.67;;;3.20;;
2934;SDS011;2462;51.456;7.248;2022-09-17T04:25:14;7.03;;;2.27;;
2934;SDS011;2462;51.456;7.248;2022-09-17T04:27:40;9.80;;;2.27;;
2934;SDS011;2462;51.456;7.248;2022-09-17T04:30:05;7.20;;;2.80;;
2934;SDS011;2462;51.456;7.248;2022-09-17T04:32:31;4.03;;;2.00;;
2934;SDS011;2462;51.456;7.248;2022-09-17T04:34:57;8.90;;;2.10;;
2934;SDS011;2462;51.456;7.248;2022-09-17T04:37:23;10.20;;;2.30;;
2934;SDS011;2462;51.456;7.248;2022-09-17T04:39:49;4.50;;;2.60;;
2934;SDS011;2462;51.456;7.248;2022-09-17T04:42:15;5.50;;;2.03;;
2934;SDS011;2462;51.456;7.248;2022-09-17T04:44:41;11.83;;;2.17;;
2934;SDS011;2462;51.456;7.248;2022-09-17T04:47:07;6.30;;;2.53;;
2934;SDS011;2462;51.456;7.248;2022-09-17T04:49:32;7.67;;;2.50;;
2934;SDS011;2462;51.456;7.248;2022-09-17T04:51:58;4.03;;;1.50;;
2934;SDS011;2462;51.456;7.248;2022-09-17T04:54:23;5.57;;;1.83;;
2934;SDS011;2462;51.456;7.248;2022-09-17T04:56:49;9.50;;;2.20;;
2934;SDS011;2462;51.456;7.248;2022-09-17T04:59:14;9.37;;;2.40;;
2934;SDS011;2462;51.456;7.248;2022-09-17T05:01:40;6.13;;;1.87;;
2934;SDS011;2462;51.456;7.248;2022-09-17T05:04:07;12.33;;;2.23;;
2934;SDS011;2462;51.456;7.248;2022-09-17T05:06:33;5.30;;;1.90;;
2934;SDS011;2462;51.456;7.248;2022-09-17T05:08:58;9.07;;;2.10;;
2934;SDS011;2462;51.456;7.248;2022-09-17T05:11:24;7.17;;;2.57;;
2934;SDS011;2462;51.456;7.248;2022-09-17T05:13:49;6.00;;;1.93;;
2934;SDS011;2462;51.456;7.248;2022-09-17T05:16:15;9.80;;;2.80;;
2934;SDS011;2462;51.456;7.248;2022-09-17T05:18:40;8.07;;;2.17;;
2934;SDS011;2462;51.456;7.248;2022-09-17T05:21:06;5.37;;;2.27;;
2934;SDS011;2462;51.456;7.248;2022-09-17T05:23:31;3.80;;;1.83;;
2934;SDS011;2462;51.456;7.248;2022-09-17T05:25:57;6.37;;;2.13;;
2934;SDS011;2462;51.456;7.248;2022-09-17T05:28:26;6.77;;;2.20;;
2934;SDS011;2462;51.456;7.248;2022-09-17T05:30:52;4.73;;;1.70;;
2934;SDS011;2462;51.456;7.248;2022-09-17T05:33:18;6.70;;;1.80;;
2934;SDS011;2462;51.456;7.248;2022-09-17T05:35:44;2.80;;;1.50;;
2934;SDS011;2462;51.456;7.248;2022-09-17T05:38:10;4.57;;;2.27;;
2934;SDS011;2462;51.456;7.248;2022-09-17T05:40:36;7.77;;;2.17;;
2934;SDS011;2462;51.456;7.248;2022-09-17T05:43:05;5.50;;;2.23;;
2934;SDS011;2462;51.456;7.248;2022-09-17T05:45:32;10.53;;;2.23;;
2934;SDS011;2462;51.456;7.248;2022-09-17T05:47:59;8.70;;;2.37;;
2934;SDS011;2462;51.456;7.248;2022-09-17T05:50:25;6.93;;;1.83;;
2934;SDS011;2462;51.456;7.248;2022-09-17T05:52:52;4.63;;;1.83;;
2934;SDS011;2462;51.456;7.248;2022-09-17T05:55:18;5.53;;;1.67;;
2934;SDS011;2462;51.456;7.248;2022-09-17T05:57:46;5.57;;;1.70;;
2934;SDS011;2462;51.456;7.248;2022-09-17T06:00:15;3.80;;;1.83;;
2934;SDS011;2462;51.456;7.248;2022-09-17T06:02:41;5.63;;;1.63;;
2934;SDS011;2462;51.456;7.248;2022-09-17T06:05:06;5.63;;;1.80;;
2934;SDS011;2462;51.456;7.248;2022-09-17T06:07:35;5.90;;;1.43;;
2934;SDS011;2462;51.456;7.248;2022-09-17T06:10:02;4.60;;;2.03;;
2934;SDS011;2462;51.456;7.248;2022-09-17T06:12:29;6.53;;;1.73;;
2934;SDS011;2462;51.456;7.248;2022-09-17T06:14:55;9.90;;;2.17;;
2934;SDS011;2462;51.456;7.248;2022-09-17T06:17:20;7.07;;;2.20;;
2934;SDS011;2462;51.456;7.248;2022-09-17T06:19:46;9.83;;;2.30;;
2934;SDS011;2462;51.456;7.248;2022-09-17T06:22:11;6.33;;;2.10;;
2934;SDS011;2462;51.456;7.248;2022-09-17T06:24:37;9.27;;;2.83;;
2934;SDS011;2462;51.456;7.248;2022-09-17T06:27:03;11.13;;;2.20;;
2934;SDS011;2462;51.456;7.248;2022-09-17T06:29:29;9.23;;;1.90;;
2934;SDS011;2462;51.456;7.248;2022-09-17T06:31:54;12.07;;;3.63;;
2934;SDS011;2462;51.456;7.248;2022-09-17T06:34:20;7.63;;;2.63;;
2934;SDS011;2462;51.456;7.248;2022-09-17T06:36:47;10.43;;;2.50;;
2934;SDS011;2462;51.456;7.248;2022-09-17T06:39:13;7.80;;;2.40;;
2934;SDS011;2462;51.456;7.248;2022-09-17T06:41:40;6.60;;;2.50;;
2934;SDS011;2462;51.456;7.248;2022-09-17T06:44:07;10.63;;;2.83;;
2934;SDS011;2462;51.456;7.248;2022-09-17T06:46:32;10.43;;;2.83;;
2934;SDS011;2462;51.456;7.248;2022-09-17T06:48:58;6.97;;;2.30;;
2934;SDS011;2462;51.456;7.248;2022-09-17T06:51:23;9.60;;;2.30;;
2934;SDS011;2462;51.456;7.248;2022-09-17T06:53:49;9.40;;;2.17;;
2934;SDS011;2462;51.456;7.248;2022-09-17T06:56:15;17.60;;;2.50;;
2934;SDS011;2462;51.456;7.248;2022-09-17T06:58:40;7.97;;;2.27;;
2934;SDS011;2462;51.456;7.248;2022-09-17T07:01:07;11.73;;;2.90;;
2934;SDS011;2462;51.456;7.248;2022-09-17T07:03:34;6.00;;;2.20;;
2934;SDS011;2462;51.456;7.248;2022-09-17T07:06:00;7.40;;;2.40;;
2934;SDS011;2462;51.456;7.248;2022-09-17T07:08:27;9.00;;;2.03;;
2934;SDS011;2462;51.456;7.248;2022-09-17T07:10:55;8.33;;;2.53;;
2934;SDS011;2462;51.456;7.248;2022-09-17T07:13:21;7.50;;;2.03;;
2934;SDS011;2462;51.456;7.248;2022-09-17T07:15:51;8.50;;;2.33;;
2934;SDS011;2462;51.456;7.248;2022-09-17T07:18:24;8.37;;;2.10;;
2934;SDS011;2462;51.456;7.248;2022-09-17T07:20:54;7.63;;;2.63;;
2934;SDS011;2462;51.456;7.248;2022-09-17T07:23:32;8.27;;;2.30;;
2934;SDS011;2462;51.456;7.248;2022-09-17T07:25:59;7.23;;;2.50;;
2934;SDS011;2462;51.456;7.248;2022-09-17T07:28:26;6.07;;;2.33;;
2934;SDS011;2462;51.456;7.248;2022-09-17T07:30:53;5.03;;;2.80;;
2934;SDS011;2462;51.456;7.248;2022-09-17T07:33:20;5.20;;;2.20;;
2934;SDS011;2462;51.456;7.248;2022-09-17T07:35:54;9.13;;;2.20;;
2934;SDS011;2462;51.456;7.248;2022-09-17T07:38:24;6.73;;;2.40;;
2934;SDS011;2462;51.456;7.248;2022-09-17T07:40:55;9.50;;;2.70;;
2934;SDS011;2462;51.456;7.248;2022-09-17T07:43:28;7.67;;;2.90;;
2934;SDS011;2462;51.456;7.248;2022-09-17T07:45:56;8.17;;;2.77;;
2934;SDS011;2462;51.456;7.248;2022-09-17T07:48:23;13.27;;;3.47;;
2934;SDS011;2462;51.456;7.248;2022-09-17T07:50:48;8.23;;;2.60;;
2934;SDS011;2462;51.456;7.248;2022-09-17T07:53:14;7.50;;;2.30;;
2934;SDS011;2462;51.456;7.248;2022-09-17T07:55:40;5.73;;;2.53;;
2934;SDS011;2462;51.456;7.248;2022-09-17T07:58:06;4.17;;;2.30;;
2934;SDS011;2462;51.456;7.248;2022-09-17T08:00:32;6.50;;;1.80;;
2934;SDS011;2462;51.456;7.248;2022-09-17T08:02:58;9.27;;;2.90;;
2934;SDS011;2462;51.456;7.248;2022-09-17T08:05:23;10.07;;;2.40;;
2934;SDS011;2462;51.456;7.248;2022-09-17T08:07:53;4.00;;;2.03;;
2934;SDS011;2462;51.456;7.248;2022-09-17T08:10:20;7.00;;;2.50;;
2934;SDS011;2462;51.456;7.248;2022-09-17T08:12:49;6.90;;;2.50;;
2934;SDS011;2462;51.456;7.248;2022-09-17T08:15:18;8.20;;;2.73;;
2934;SDS011;2462;51.456;7.248;2022-09-17T08:17:44;10.80;;;2.53;;
2934;SDS011;2462;51.456;7.248;2022-09-17T08:20:11;6.20;;;2.00;;
2934;SDS011;2462;51.456;7.248;2022-09-17T08:22:37;6.27;;;1.60;;
2934;SDS011;2462;51.456;7.248;2022-09-17T08:25:03;3.83;;;1.87;;
2934;SDS011;2462;51.456;7.248;2022-09-17T08:27:30;5.53;;;2.00;;
2934;SDS011;2462;51.456;7.248;2022-09-17T08:29:56;7.03;;;1.73;;
2934;SDS011;2462;51.456;7.248;2022-09-17T08:32:22;7.07;;;2.70;;
2934;SDS011;2462;51.456;7.248;2022-09-17T08:34:48;4.00;;;1.87;;
2934;SDS011;2462;51.456;7.248;2022-09-17T08:37:13;2.50;;;1.80;;
2934;SDS011;2462;51.456;7.248;2022-09-17T08:39:39;7.57;;;1.80;;
2934;SDS011;2462;51.456;7.248;2022-09-17T08:42:08;4.63;;;1.73;;
2934;SDS011;2462;51.456;7.248;2022-09-17T08:44:45;9.40;;;1.53;;
2934;SDS011;2462;51.456;7.248;2022-09-17T08:47:15;4.73;;;1.83;;
2934;SDS011;2462;51.456;7.248;2022-09-17T08:49:52;5.57;;;2.10;;
2934;SDS011;2462;51.456;7.248;2022-09-17T08:52:30;5.83;;;1.27;;
2934;SDS011;2462;51.456;7.248;2022-09-17T08:55:11;2.80;;;1.30;;
2934;SDS011;2462;51.456;7.248;2022-09-17T09:00:52;2.90;;;1.30;;
2934;SDS011;2462;51.456;7.248;2022-09-17T09:03:32;7.80;;;2.17;;
2934;SDS011;2462;51.456;7.248;2022-09-17T09:06:21;5.17;;;1.77;;
2934;SDS011;2462;51.456;7.248;2022-09-17T09:08:55;4.17;;;1.30;;
2934;SDS011;2462;51.456;7.248;2022-09-17T09:11:27;4.37;;;1.63;;
2934;SDS011;2462;51.456;7.248;2022-09-17T09:16:53;2.90;;;1.60;;
2934;SDS011;2462;51.456;7.248;2022-09-17T09:19:22;9.67;;;1.90;;
2934;SDS011;2462;51.456;7.248;2022-09-17T09:24:22;2.80;;;1.30;;
2934;SDS011;2462;51.456;7.248;2022-09-17T09:27:08;10.13;;;1.50;;
2934;SDS011;2462;51.456;7.248;2022-09-17T09:35:02;3.17;;;1.50;;
2934;SDS011;2462;51.456;7.248;2022-09-17T09:37:45;3.47;;;1.47;;
2934;SDS011;2462;51.456;7.248;2022-09-17T09:40:22;5.10;;;1.40;;
2934;SDS011;2462;51.456;7.248;2022-09-17T09:43:00;2.50;;;1.17;;
2934;SDS011;2462;51.456;7.248;2022-09-17T09:48:33;5.23;;;1.30;;
2934;SDS011;2462;51.456;7.248;2022-09-17T09:59:10;3.13;;;1.30;;
2934;SDS011;2462;51.456;7.248;2022-09-17T10:01:38;7.53;;;1.40;;
2934;SDS011;2462;51.456;7.248;2022-09-17T10:04:25;4.03;;;0.90;;
2934;SDS011;2462;51.456;7.248;2022-09-17T10:06:52;4.37;;;1.17;;
2934;SDS011;2462;51.456;7.248;2022-09-17T10:09:29;1.97;;;1.07;;
2934;SDS011;2462;51.456;7.248;2022-09-17T10:12:01;4.47;;;1.00;;
2934;SDS011;2462;51.456;7.248;2022-09-17T10:14:29;1.80;;;0.90;;
2934;SDS011;2462;51.456;7.248;2022-09-17T10:17:10;3.03;;;1.40;;
2934;SDS011;2462;51.456;7.248;2022-09-17T10:19:39;2.97;;;1.00;;
2934;SDS011;2462;51.456;7.248;2022-09-17T10:25:16;3.77;;;1.00;;
2934;SDS011;2462;51.456;7.248;2022-09-17T10:27:48;2.20;;;0.90;;
2934;SDS011;2462;51.456;7.248;2022-09-17T10:30:15;4.20;;;1.03;;
2934;SDS011;2462;51.456;7.248;2022-09-17T10:32:42;2.90;;;0.93;;
2934;SDS011;2462;51.456;7.248;2022-09-17T10:42:50;3.10;;;1.03;;
2934;SDS011;2462;51.456;7.248;2022-09-17T10:45:32;3.73;;;1.27;;
2934;SDS011;2462;51.456;7.248;2022-09-17T10:47:58;9.00;;;1.47;;
2934;SDS011;2462;51.456;7.248;2022-09-17T10:50:28;1.67;;;1.20;;
2934;SDS011;2462;51.456;7.248;2022-09-17T10:52:56;1.70;;;1.10;;
2934;SDS011;2462;51.456;7.248;2022-09-17T11:03:15;3.10;;;0.80;;
2934;SDS011;2462;51.456;7.248;2022-09-17T11:12:03;3.63;;;0.90;;
2934;SDS011;2462;51.456;7.248;2022-09-17T11:19:57;2.17;;;0.93;;
2934;SDS011;2462;51.456;7.248;2022-09-17T11:25:45;3.67;;;0.90;;
2934;SDS011;2462;51.456;7.248;2022-09-17T11:31:23;1.10;;;0.80;;
2934;SDS011;2462;51.456;7.248;2022-09-17T11:39:58;1.70;;;0.90;;
2934;SDS011;2462;51.456;7.248;2022-09-17T11:42:37;3.10;;;1.00;;
2934;SDS011;2462;51.456;7.248;2022-09-17T11:45:04;1.97;;;1.30;;
2934;SDS011;2462;51.456;7.248;2022-09-17T11:50:44;2.90;;;0.60;;
2934;SDS011;2462;51.456;7.248;2022-09-17T11:53:27;3.33;;;0.90;;
2934;SDS011;2462;51.456;7.248;2022-09-17T12:01:00;1.43;;;0.63;;
2934;SDS011;2462;51.456;7.248;2022-09-17T12:03:39;1.97;;;0.90;;
2934;SDS011;2462;51.456;7.248;2022-09-17T12:06:12;6.13;;;2.57;;
2934;SDS011;2462;51.456;7.248;2022-09-17T12:11:37;2.23;;;1.00;;
2934;SDS011;2462;51.456;7.248;2022-09-17T12:14:21;5.13;;;0.90;;
2934;SDS011;2462;51.456;7.248;2022-09-17T12:16:55;1.70;;;0.93;;
2934;SDS011;2462;51.456;7.248;2022-09-17T12:24:39;1.67;;;0.70;;
2934;SDS011;2462;51.456;7.248;2022-09-17T12:27:14;2.30;;;0.80;;
2934;SDS011;2462;51.456;7.248;2022-09-17T12:40:32;2.10;;;0.90;;
2934;SDS011;2462;51.456;7.248;2022-09-17T12:46:51;4.50;;;1.30;;
2934;SDS011;2462;51.456;7.248;2022-09-17T12:52:24;2.60;;;1.10;;
2934;SDS011;2462;51.456;7.248;2022-09-17T12:58:13;3.73;;;0.93;;
2934;SDS011;2462;51.456;7.248;2022-09-17T13:03:39;4.40;;;0.80;;
2934;SDS011;2462;51.456;7.248;2022-09-17T13:06:13;3.30;;;0.93;;
2934;SDS011;2462;51.456;7.248;2022-09-17T13:14:17;4.30;;;1.10;;
2934;SDS011;2462;51.456;7.248;2022-09-17T13:17:06;2.43;;;0.90;;
2934;SDS011;2462;51.456;7.248;2022-09-17T13:19:55;3.37;;;1.10;;
2934;SDS011;2462;51.456;7.248;2022-09-17T13:22:42;10.77;;;1.30;;
2934;SDS011;2462;51.456;7.248;2022-09-17T13:25:10;3.47;;;1.03;;
2934;SDS011;2462;51.456;7.248;2022-09-17T13:27:38;3.00;;;0.80;;
2934;SDS011;2462;51.456;7.248;2022-09-17T13:30:08;9.93;;;1.10;;
2934;SDS011;2462;51.456;7.248;2022-09-17T13:35:44;2.23;;;0.90;;
2934;SDS011;2462;51.456;7.248;2022-09-17T13:42:57;2.40;;;1.27;;
2934;SDS011;2462;51.456;7.248;2022-09-17T13:45:26;4.60;;;1.30;;
2934;SDS011;2462;51.456;7.248;2022-09-17T13:53:04;6.20;;;1.93;;
2934;SDS011;2462;51.456;7.248;2022-09-17T13:55:41;9.83;;;2.20;;
2934;SDS011;2462;51.456;7.248;2022-09-17T13:58:08;6.03;;;2.10;;
2934;SDS011;2462;51.456;7.248;2022-09-17T14:13:57;2.60;;;1.13;;
2934;SDS011;2462;51.456;7.248;2022-09-17T14:29:52;6.80;;;1.10;;
2934;SDS011;2462;51.456;7.248;2022-09-17T14:32:39;1.20;;;0.90;;
2934;SDS011;2462;51.456;7.248;2022-09-17T14:35:13;3.83;;;1.20;;
2934;SDS011;2462;51.456;7.248;2022-09-17T14:37:50;3.90;;;1.13;;
2934;SDS011;2462;51.456;7.248;2022-09-17T14:40:18;6.37;;;1.40;;
2934;SDS011;2462;51.456;7.248;2022-09-17T14:42:47;2.97;;;1.17;;
2934;SDS011;2462;51.456;7.248;2022-09-17T14:45:18;2.33;;;1.20;;
2934;SDS011;2462;51.456;7.248;2022-09-17T14:47:47;5.23;;;1.20;;
2934;SDS011;2462;51.456;7.248;2022-09-17T14:50:31;4.20;;;1.23;;
2934;SDS011;2462;51.456;7.248;2022-09-17T14:52:56;2.60;;;1.03;;
2934;SDS011;2462;51.456;7.248;2022-09-17T14:55:22;5.57;;;1.33;;
2934;SDS011;2462;51.456;7.248;2022-09-17T14:57:54;6.00;;;1.30;;
2934;SDS011;2462;51.456;7.248;2022-09-17T15:00:24;2.03;;;1.10;;
2934;SDS011;2462;51.456;7.248;2022-09-17T15:02:56;2.40;;;1.20;;
2934;SDS011;2462;51.456;7.248;2022-09-17T15:05:29;2.40;;;1.10;;
2934;SDS011;2462;51.456;7.248;2022-09-17T15:08:14;4.10;;;1.30;;
2934;SDS011;2462;51.456;7.248;2022-09-17T15:13:14;2.20;;;0.90;;
2934;SDS011;2462;51.456;7.248;2022-09-17T15:16:18;2.53;;;0.90;;
2934;SDS011;2462;51.456;7.248;2022-09-17T15:18:46;2.13;;;1.30;;
2934;SDS011;2462;51.456;7.248;2022-09-17T15:23:49;6.27;;;1.40;;
2934;SDS011;2462;51.456;7.248;2022-09-17T15:26:17;5.53;;;1.00;;
2934;SDS011;2462;51.456;7.248;2022-09-17T15:28:49;4.50;;;1.47;;
2934;SDS011;2462;51.456;7.248;2022-09-17T15:31:18;2.10;;;0.93;;
2934;SDS011;2462;51.456;7.248;2022-09-17T15:33:44;2.80;;;1.00;;
2934;SDS011;2462;51.456;7.248;2022-09-17T15:38:45;2.60;;;1.20;;
2934;SDS011;2462;51.456;7.248;2022-09-17T15:43:43;3.67;;;1.37;;
2934;SDS011;2462;51.456;7.248;2022-09-17T15:46:21;3.67;;;1.13;;
2934;SDS011;2462;51.456;7.248;2022-09-17T15:48:51;2.57;;;1.20;;
2934;SDS011;2462;51.456;7.248;2022-09-17T15:51:51;3.30;;;1.00;;
2934;SDS011;2462;51.456;7.248;2022-09-17T15:54:24;14.13;;;2.90;;
2934;SDS011;2462;51.456;7.248;2022-09-17T15:56:57;2.20;;;0.80;;
2934;SDS011;2462;51.456;7.248;2022-09-17T15:59:30;1.97;;;1.00;;
2934;SDS011;2462;51.456;7.248;2022-09-17T16:01:59;3.63;;;0.93;;
2934;SDS011;2462;51.456;7.248;2022-09-17T16:04:27;2.13;;;1.03;;
2934;SDS011;2462;51.456;7.248;2022-09-17T16:06:59;2.90;;;1.10;;
2934;SDS011;2462;51.456;7.248;2022-09-17T16:12:04;2.43;;;1.43;;
2934;SDS011;2462;51.456;7.248;2022-09-17T16:14:30;5.27;;;1.30;;
2934;SDS011;2462;51.456;7.248;2022-09-17T16:16:55;1.93;;;1.40;;
2934;SDS011;2462;51.456;7.248;2022-09-17T16:19:23;9.17;;;1.47;;
2934;SDS011;2462;51.456;7.248;2022-09-17T16:21:49;2.23;;;1.10;;
2934;SDS011;2462;51.456;7.248;2022-09-17T16:24:15;3.10;;;1.40;;
2934;SDS011;2462;51.456;7.248;2022-09-17T16:26:40;3.87;;;1.10;;
2934;SDS011;2462;51.456;7.248;2022-09-17T16:29:09;2.17;;;1.17;;
2934;SDS011;2462;51.456;7.248;2022-09-17T16:31:37;1.40;;;0.90;;
2934;SDS011;2462;51.456;7.248;2022-09-17T16:34:03;5.23;;;1.33;;
2934;SDS011;2462;51.456;7.248;2022-09-17T16:36:28;2.53;;;1.10;;
2934;SDS011;2462;51.456;7.248;2022-09-17T16:38:56;4.13;;;1.23;;
2934;SDS011;2462;51.456;7.248;2022-09-17T16:41:22;4.30;;;1.20;;
2934;SDS011;2462;51.456;7.248;2022-09-17T16:43:48;2.10;;;1.13;;
2934;SDS011;2462;51.456;7.248;2022-09-17T16:46:13;3.10;;;1.40;;
2934;SDS011;2462;51.456;7.248;2022-09-17T16:48:39;5.40;;;1.43;;
2934;SDS011;2462;51.456;7.248;2022-09-17T16:51:10;6.00;;;1.63;;
2934;SDS011;2462;51.456;7.248;2022-09-17T16:53:36;7.13;;;1.30;;
2934;SDS011;2462;51.456;7.248;2022-09-17T16:56:06;5.47;;;1.90;;
2934;SDS011;2462;51.456;7.248;2022-09-17T16:58:33;2.30;;;0.90;;
2934;SDS011;2462;51.456;7.248;2022-09-17T17:01:04;5.37;;;1.80;;
2934;SDS011;2462;51.456;7.248;2022-09-17T17:03:31;8.20;;;5.70;;
2934;SDS011;2462;51.456;7.248;2022-09-17T17:05:56;7.93;;;5.23;;
2934;SDS011;2462;51.456;7.248;2022-09-17T17:08:22;5.03;;;3.40;;
2934;SDS011;2462;51.456;7.248;2022-09-17T17:10:48;5.83;;;1.93;;
2934;SDS011;2462;51.456;7.248;2022-09-17T17:13:14;8.10;;;1.60;;
2934;SDS011;2462;51.456;7.248;2022-09-17T17:15:40;2.70;;;1.60;;
2934;SDS011;2462;51.456;7.248;2022-09-17T17:18:05;4.30;;;1.90;;
2934;SDS011;2462;51.456;7.248;2022-09-17T17:20:33;5.90;;;1.60;;
2934;SDS011;2462;51.456;7.248;2022-09-17T17:23:00;4.07;;;1.80;;
2934;SDS011;2462;51.456;7.248;2022-09-17T17:25:25;8.40;;;2.40;;
2934;SDS011;2462;51.456;7.248;2022-09-17T17:27:51;4.87;;;1.60;;
2934;SDS011;2462;51.456;7.248;2022-09-17T17:30:16;2.63;;;1.40;;
2934;SDS011;2462;51.456;7.248;2022-09-17T17:32:42;4.40;;;1.30;;
2934;SDS011;2462;51.456;7.248;2022-09-17T17:35:09;5.17;;;1.50;;
2934;SDS011;2462;51.456;7.248;2022-09-17T17:37:35;5.90;;;1.47;;
2934;SDS011;2462;51.456;7.248;2022-09-17T17:40:01;3.87;;;1.60;;
2934;SDS011;2462;51.456;7.248;2022-09-17T17:42:32;5.57;;;1.70;;
2934;SDS011;2462;51.456;7.248;2022-09-17T17:45:02;4.17;;;1.70;;
2934;SDS011;2462;51.456;7.248;2022-09-17T17:47:28;3.50;;;1.77;;
2934;SDS011;2462;51.456;7.248;2022-09-17T17:49:53;7.53;;;1.40;;
2934;SDS011;2462;51.456;7.248;2022-09-17T17:52:19;5.60;;;1.57;;
2934;SDS011;2462;51.456;7.248;2022-09-17T17:54:45;3.17;;;1.37;;
2934;SDS011;2462;51.456;7.248;2022-09-17T17:57:10;3.37;;;1.90;;
2934;SDS011;2462;51.456;7.248;2022-09-17T17:59:36;3.83;;;1.90;;
2934;SDS011;2462;51.456;7.248;2022-09-17T18:02:01;2.63;;;2.07;;
2934;SDS011;2462;51.456;7.248;2022-09-17T18:04:27;7.83;;;2.20;;
2934;SDS011;2462;51.456;7.248;2022-09-17T18:06:53;3.53;;;1.43;;
2934;SDS011;2462;51.456;7.248;2022-09-17T18:09:18;3.73;;;1.60;;
2934;SDS011;2462;51.456;7.248;2022-09-17T18:11:44;4.10;;;1.53;;
2934;SDS011;2462;51.456;7.248;2022-09-17T18:14:12;6.33;;;2.03;;
2934;SDS011;2462;51.456;7.248;2022-09-17T18:16:38;5.00;;;1.80;;
2934;SDS011;2462;51.456;7.248;2022-09-17T18:19:04;4.80;;;1.40;;
2934;SDS011;2462;51.456;7.248;2022-09-17T18:21:30;3.33;;;1.67;;
2934;SDS011;2462;51.456;7.248;2022-09-17T18:23:56;3.87;;;1.67;;
2934;SDS011;2462;51.456;7.248;2022-09-17T18:26:22;4.83;;;1.80;;
2934;SDS011;2462;51.456;7.248;2022-09-17T18:28:49;7.53;;;2.43;;
2934;SDS011;2462;51.456;7.248;2022-09-17T18:31:20;8.20;;;2.40;;
2934;SDS011;2462;51.456;7.248;2022-09-17T18:33:53;6.13;;;1.90;;
2934;SDS011;2462;51.456;7.248;2022-09-17T18:36:24;5.87;;;2.63;;
2934;SDS011;2462;51.456;7.248;2022-09-17T18:38:51;9.43;;;2.20;;
2934;SDS011;2462;51.456;7.248;2022-09-17T18:41:25;7.80;;;1.90;;
2934;SDS011;2462;51.456;7.248;2022-09-17T18:43:51;3.97;;;2.00;;
2934;SDS011;2462;51.456;7.248;2022-09-17T18:46:17;3.83;;;2.40;;
2934;SDS011;2462;51.456;7.248;2022-09-17T18:48:42;11.93;;;2.40;;
2934;SDS011;2462;51.456;7.248;2022-09-17T18:51:09;9.03;;;1.73;;